createdAt,value
2023-04-26T00:00:52.766Z,500.00
2023-04-26T00:01:52.772Z,475.00
2023-04-26T00:02:52.932Z,476.00
2023-04-26T00:03:53.079Z,478.00
2023-04-26T00:04:52.905Z,486.00
2023-04-26T00:05:52.877Z,494.00
2023-04-26T00:06:52.838Z,502.00
2023-04-26T00:07:52.840Z,554.00
2023-04-26T00:08:53.138Z,517.00
2023-04-26T00:09:52.939Z,508.00
2023-04-26T00:10:52.934Z,488.00
2023-04-26T00:11:53.000Z,500.00
2023-04-26T00:12:52.990Z,467.00
2023-04-26T00:13:53.014Z,492.00
2023-04-26T00:14:53.061Z,485.00
2023-04-26T00:15:53.102Z,475.00
2023-04-26T00:16:53.123Z,493.00
2023-04-26T00:17:53.140Z,508.00
2023-04-26T00:18:53.425Z,514.00
2023-04-26T00:19:53.162Z,499.00
2023-04-26T00:20:53.188Z,472.00
2023-04-26T00:21:53.221Z,503.00
2023-04-26T00:22:53.253Z,495.00
2023-04-26T00:23:53.286Z,532.00
2023-04-26T00:24:53.323Z,588.00
2023-04-26T00:25:53.389Z,672.00
2023-04-26T00:26:53.464Z,628.00
2023-04-26T00:27:53.555Z,589.00
2023-04-26T00:28:53.960Z,574.00
2023-04-26T00:29:53.662Z,648.00
2023-04-26T00:30:53.725Z,1048.00
2023-04-26T00:31:53.825Z,1225.00
2023-04-26T00:32:53.891Z,1377.00
2023-04-26T00:33:53.887Z,1434.00
2023-04-26T00:34:53.946Z,1530.00
2023-04-26T00:35:54.024Z,1597.00
2023-04-26T00:36:54.075Z,1599.00
2023-04-26T00:37:54.097Z,1568.00
2023-04-26T00:38:54.279Z,1397.00
2023-04-26T00:39:54.177Z,1396.00
2023-04-26T00:40:54.209Z,1477.00
2023-04-26T00:41:54.241Z,1351.00
2023-04-26T00:42:54.276Z,1209.00
2023-04-26T00:43:54.346Z,1099.00
2023-04-26T00:44:55.192Z,853.00
2023-04-26T00:45:54.459Z,646.00
2023-04-26T00:46:54.490Z,621.00
2023-04-26T00:47:54.527Z,597.00
2023-04-26T00:48:54.758Z,627.00
2023-04-26T00:49:54.585Z,616.00
2023-04-26T00:50:54.634Z,602.00
2023-04-26T00:51:54.688Z,559.00
2023-04-26T00:52:54.730Z,564.00
2023-04-26T00:53:54.786Z,602.00
2023-04-26T00:54:54.808Z,629.00
2023-04-26T00:55:54.884Z,637.00
2023-04-26T00:56:54.878Z,662.00
2023-04-26T00:57:54.910Z,761.00
2023-04-26T00:58:55.213Z,844.00
2023-04-26T00:59:54.992Z,982.00
2023-04-26T01:00:55.027Z,1080.00
2023-04-26T01:01:54.989Z,1127.00
2023-04-26T01:02:55.150Z,1088.00
2023-04-26T01:03:55.145Z,1054.00
2023-04-26T01:04:55.064Z,1071.00
2023-04-26T01:05:55.112Z,1160.00
2023-04-26T01:06:55.154Z,1240.00
2023-04-26T01:07:55.189Z,1321.00
2023-04-26T01:08:55.208Z,1324.00
2023-04-26T01:09:55.267Z,1303.00
2023-04-26T01:10:55.318Z,1281.00
2023-04-26T01:11:55.357Z,1274.00
2023-04-26T01:12:55.411Z,1320.00
2023-04-26T01:13:55.430Z,1231.00
2023-04-26T01:14:55.450Z,998.00
2023-04-26T01:15:55.480Z,894.00
2023-04-26T01:16:55.566Z,881.00
2023-04-26T01:17:55.563Z,851.00
2023-04-26T01:18:55.531Z,781.00
2023-04-26T01:19:55.565Z,704.00
2023-04-26T01:20:55.611Z,640.00
2023-04-26T01:21:55.614Z,640.00
2023-04-26T01:22:55.635Z,636.00
2023-04-26T01:23:55.660Z,645.00
2023-04-26T01:24:55.661Z,692.00
2023-04-26T01:25:55.720Z,800.00
2023-04-26T01:26:55.756Z,882.00
2023-04-26T01:27:55.821Z,954.00
2023-04-26T01:28:55.840Z,1105.00
2023-04-26T01:29:55.908Z,1085.00
2023-04-26T01:30:55.937Z,1177.00
2023-04-26T01:31:56.108Z,1413.00
2023-04-26T01:32:56.084Z,1480.00
2023-04-26T01:33:56.089Z,1562.00
2023-04-26T01:34:56.120Z,1583.00
2023-04-26T01:35:56.149Z,1752.00
2023-04-26T01:36:56.194Z,1823.00
2023-04-26T01:37:56.221Z,1823.00
2023-04-26T01:38:56.281Z,1802.00
2023-04-26T01:39:56.297Z,1783.00
2023-04-26T01:40:56.323Z,1814.00
2023-04-26T01:41:56.354Z,1963.00
2023-04-26T01:42:56.379Z,2013.00
2023-04-26T01:43:56.423Z,1886.00
2023-04-26T01:44:56.464Z,1799.00
2023-04-26T01:45:56.525Z,1900.00
2023-04-26T01:46:56.567Z,1985.00
2023-04-26T01:47:56.715Z,2116.00
2023-04-26T01:48:56.691Z,2034.00
2023-04-26T01:49:56.712Z,1779.00
2023-04-26T01:50:56.751Z,1619.00
2023-04-26T01:51:56.799Z,1574.00
2023-04-26T01:52:56.830Z,1595.00
2023-04-26T01:53:56.860Z,1561.00
2023-04-26T01:54:56.888Z,1583.00
2023-04-26T01:55:56.927Z,1591.00
2023-04-26T01:56:56.941Z,1525.00
2023-04-26T01:57:56.991Z,1524.00
2023-04-26T01:58:57.039Z,1509.00
2023-04-26T01:59:57.101Z,1474.00
2023-04-26T02:00:57.156Z,1475.00
2023-04-26T02:01:57.202Z,1544.00
2023-04-26T02:02:57.262Z,1355.00
2023-04-26T02:03:57.289Z,1022.00
2023-04-26T02:04:57.412Z,897.00
2023-04-26T02:05:57.403Z,833.00
2023-04-26T02:06:57.456Z,998.00
2023-04-26T02:07:57.516Z,1089.00
2023-04-26T02:08:57.625Z,1129.00
2023-04-26T02:09:57.669Z,1175.00
2023-04-26T02:10:57.767Z,1266.00
2023-04-26T02:11:57.810Z,1296.00
2023-04-26T02:12:57.884Z,1228.00
2023-04-26T02:13:57.973Z,1225.00
2023-04-26T02:14:58.019Z,1202.00
2023-04-26T02:15:58.162Z,1196.00
2023-04-26T02:16:58.194Z,1223.00
2023-04-26T02:17:58.322Z,1233.00
2023-04-26T02:18:58.368Z,1280.00
2023-04-26T02:19:58.477Z,1383.00
2023-04-26T02:20:58.515Z,1422.00
2023-04-26T02:21:58.596Z,1532.00
2023-04-26T02:22:58.674Z,1619.00
2023-04-26T02:23:58.773Z,1681.00
2023-04-26T02:24:58.869Z,1675.00
2023-04-26T02:25:58.958Z,1583.00
2023-04-26T02:26:58.990Z,1507.00
2023-04-26T02:27:59.081Z,1520.00
2023-04-26T02:28:59.108Z,1442.00
2023-04-26T02:29:59.166Z,1483.00
2023-04-26T02:30:59.287Z,1540.00
2023-04-26T02:31:59.352Z,1479.00
2023-04-26T02:32:59.572Z,1239.00
2023-04-26T02:33:59.475Z,1118.00
2023-04-26T02:34:59.564Z,1029.00
2023-04-26T02:35:59.654Z,951.00
2023-04-26T02:36:59.710Z,866.00
2023-04-26T02:37:59.790Z,825.00
2023-04-26T02:38:59.878Z,895.00
2023-04-26T02:39:59.921Z,1036.00
2023-04-26T02:40:59.994Z,1242.00
2023-04-26T02:42:00.021Z,1420.00
2023-04-26T02:43:00.073Z,1303.00
2023-04-26T02:44:00.116Z,1265.00
2023-04-26T02:45:00.161Z,1255.00
2023-04-26T02:46:00.194Z,1291.00
2023-04-26T02:47:00.318Z,1368.00
2023-04-26T02:48:00.431Z,1302.00
2023-04-26T02:49:00.460Z,1304.00
2023-04-26T02:50:00.549Z,1267.00
2023-04-26T02:51:00.660Z,1290.00
2023-04-26T02:52:00.747Z,1335.00
2023-04-26T02:53:00.774Z,1278.00
2023-04-26T02:54:00.837Z,1290.00
2023-04-26T02:55:00.893Z,1257.00
2023-04-26T02:56:00.986Z,1413.00
2023-04-26T02:57:01.062Z,1538.00
2023-04-26T02:58:01.118Z,1603.00
2023-04-26T02:59:01.220Z,1681.00
2023-04-26T03:00:01.313Z,1644.00
2023-04-26T03:01:01.990Z,1636.00
2023-04-26T03:02:01.467Z,1668.00
2023-04-26T03:03:01.626Z,1697.00
2023-04-26T03:04:01.744Z,1704.00
2023-04-26T03:05:01.666Z,1683.00
2023-04-26T03:06:01.706Z,1630.00
2023-04-26T03:07:01.777Z,1622.00
2023-04-26T03:08:01.824Z,1707.00
2023-04-26T03:09:01.802Z,1763.00
2023-04-26T03:10:01.852Z,1680.00
2023-04-26T03:11:01.885Z,1546.00
2023-04-26T03:12:01.927Z,1511.00
2023-04-26T03:13:02.010Z,1506.00
2023-04-26T03:14:02.093Z,1402.00
2023-04-26T03:15:02.219Z,1384.00
2023-04-26T03:16:02.301Z,1295.00
2023-04-26T03:17:02.467Z,1252.00
2023-04-26T03:18:02.516Z,1312.00
2023-04-26T03:19:02.523Z,1356.00
2023-04-26T03:20:02.976Z,1383.00
2023-04-26T03:21:02.677Z,1489.00
2023-04-26T03:22:02.779Z,1525.00
2023-04-26T03:23:02.826Z,1596.00
2023-04-26T03:24:02.945Z,1589.00
2023-04-26T03:25:02.970Z,1602.00
2023-04-26T03:26:03.032Z,1531.00
2023-04-26T03:27:03.115Z,1547.00
2023-04-26T03:28:03.166Z,1584.00
2023-04-26T03:29:03.238Z,1660.00
2023-04-26T03:30:03.296Z,1641.00
2023-04-26T03:31:03.373Z,1674.00
2023-04-26T03:32:03.496Z,1747.00
2023-04-26T03:33:03.499Z,1759.00
2023-04-26T03:34:03.520Z,1735.00
2023-04-26T03:35:03.548Z,1626.00
2023-04-26T03:36:03.590Z,1530.00
2023-04-26T03:37:03.659Z,1499.00
2023-04-26T03:38:03.722Z,1475.00
2023-04-26T03:39:03.869Z,1495.00
2023-04-26T03:40:04.001Z,1548.00
2023-04-26T03:41:03.969Z,1538.00
2023-04-26T03:42:04.024Z,1501.00
2023-04-26T03:43:04.071Z,1271.00
2023-04-26T03:44:04.104Z,1160.00
2023-04-26T03:45:04.146Z,1153.00
2023-04-26T03:46:04.185Z,1107.00
2023-04-26T03:47:04.185Z,1147.00
2023-04-26T03:48:04.293Z,1279.00
2023-04-26T03:49:04.281Z,1286.00
2023-04-26T03:50:04.376Z,1462.00
2023-04-26T03:51:04.413Z,1546.00
2023-04-26T03:52:04.436Z,1654.00
2023-04-26T03:53:04.485Z,1763.00
2023-04-26T03:54:04.515Z,1882.00
2023-04-26T03:55:04.557Z,1922.00
2023-04-26T03:56:04.604Z,1887.00
2023-04-26T03:57:04.611Z,1922.00
2023-04-26T03:58:04.714Z,1991.00
2023-04-26T03:59:04.730Z,1999.00
2023-04-26T04:00:04.832Z,2073.00
2023-04-26T04:01:04.983Z,2158.00
2023-04-26T04:02:05.039Z,2180.00
2023-04-26T04:03:05.286Z,2186.00
2023-04-26T04:04:05.328Z,2220.00
2023-04-26T04:05:05.382Z,2080.00
2023-04-26T04:06:05.362Z,2002.00
2023-04-26T04:07:05.405Z,2046.00
2023-04-26T04:08:05.462Z,2015.00
2023-04-26T04:09:05.557Z,2088.00
2023-04-26T04:10:05.657Z,2126.00
2023-04-26T04:11:05.696Z,2191.00
2023-04-26T04:12:05.821Z,2171.00
2023-04-26T04:13:05.782Z,2284.00
2023-04-26T04:14:05.805Z,2401.00
2023-04-26T04:15:05.851Z,2476.00
2023-04-26T04:16:05.908Z,2296.00
2023-04-26T04:17:05.926Z,2248.00
2023-04-26T04:18:06.020Z,2247.00
2023-04-26T04:19:06.011Z,2200.00
2023-04-26T04:20:06.108Z,2220.00
2023-04-26T04:21:06.179Z,2419.00
2023-04-26T04:22:06.262Z,2617.00
2023-04-26T04:23:06.338Z,2621.00
2023-04-26T04:24:06.387Z,2452.00
2023-04-26T04:25:06.475Z,2532.00
2023-04-26T04:26:06.555Z,2643.00
2023-04-26T04:27:06.637Z,2748.00
2023-04-26T04:28:06.787Z,2676.00
2023-04-26T04:29:06.740Z,2661.00
2023-04-26T04:30:06.849Z,2631.00
2023-04-26T04:31:06.965Z,2752.00
2023-04-26T04:32:06.993Z,2650.00
2023-04-26T04:33:07.120Z,2566.00
2023-04-26T04:34:07.158Z,2636.00
2023-04-26T04:35:07.218Z,2489.00
2023-04-26T04:36:07.247Z,2566.00
2023-04-26T04:37:07.322Z,2330.00
2023-04-26T04:38:07.382Z,2332.00
2023-04-26T04:39:07.404Z,2162.00
2023-04-26T04:40:09.011Z,2022.00
2023-04-26T04:41:07.501Z,1886.00
2023-04-26T04:42:07.549Z,1709.00
2023-04-26T04:43:07.592Z,1457.00
2023-04-26T04:44:07.696Z,1334.00
2023-04-26T04:45:07.714Z,1348.00
2023-04-26T04:46:08.463Z,1316.00
2023-04-26T04:47:07.796Z,1193.00
2023-04-26T04:48:07.920Z,1231.00
2023-04-26T04:49:07.920Z,1230.00
2023-04-26T04:50:07.953Z,1251.00
2023-04-26T04:51:08.018Z,1277.00
2023-04-26T04:52:08.033Z,1395.00
2023-04-26T04:53:08.073Z,1567.00
2023-04-26T04:54:08.101Z,1636.00
2023-04-26T04:55:08.143Z,1626.00
2023-04-26T04:56:08.192Z,1608.00
2023-04-26T04:57:08.229Z,1417.00
2023-04-26T04:58:08.280Z,1330.00
2023-04-26T04:59:08.316Z,1349.00
2023-04-26T05:00:08.401Z,1319.00
2023-04-26T05:01:08.387Z,1241.00
2023-04-26T05:02:08.469Z,1315.00
2023-04-26T05:03:08.606Z,1320.00
2023-04-26T05:04:08.672Z,1420.00
2023-04-26T05:05:08.614Z,1431.00
2023-04-26T05:06:08.581Z,1419.00
2023-04-26T05:07:08.585Z,1245.00
2023-04-26T05:08:08.621Z,1181.00
2023-04-26T05:09:08.624Z,1191.00
2023-04-26T05:10:08.646Z,1233.00
2023-04-26T05:11:08.666Z,1390.00
2023-04-26T05:12:08.709Z,1310.00
2023-04-26T05:13:08.743Z,1400.00
2023-04-26T05:14:08.748Z,1458.00
2023-04-26T05:15:08.762Z,1849.00
2023-04-26T05:16:08.890Z,1832.00
2023-04-26T05:17:08.846Z,1736.00
2023-04-26T05:18:08.923Z,1628.00
2023-04-26T05:19:09.793Z,1511.00
2023-04-26T05:20:08.925Z,1453.00
2023-04-26T05:21:08.964Z,1318.00
2023-04-26T05:22:09.023Z,1223.00
2023-04-26T05:23:09.064Z,1127.00
2023-04-26T05:24:09.095Z,1203.00
2023-04-26T05:25:09.135Z,1102.00
2023-04-26T05:26:10.161Z,1348.00
2023-04-26T05:27:09.527Z,1782.00
2023-04-26T05:28:09.301Z,2116.00
2023-04-26T05:29:09.397Z,2531.00
2023-04-26T05:30:09.528Z,2289.00
2023-04-26T05:31:11.247Z,1620.00
2023-04-26T05:32:09.794Z,1291.00
2023-04-26T05:33:09.704Z,1508.00
2023-04-26T05:34:09.732Z,1882.00
2023-04-26T05:35:10.041Z,2073.00
2023-04-26T05:36:09.801Z,1517.00
2023-04-26T05:37:09.842Z,1225.00
2023-04-26T05:38:09.878Z,1295.00
2023-04-26T05:39:09.964Z,809.00
2023-04-26T05:40:10.063Z,552.00
2023-04-26T05:41:10.061Z,584.00
2023-04-26T05:42:10.134Z,707.00
2023-04-26T05:43:10.206Z,628.00
2023-04-26T05:44:10.266Z,556.00
2023-04-26T05:45:10.553Z,543.00
2023-04-26T05:46:10.476Z,529.00
2023-04-26T05:47:10.420Z,538.00
2023-04-26T05:48:11.175Z,597.00
2023-04-26T05:49:10.514Z,480.00
2023-04-26T05:50:11.024Z,415.00
2023-04-26T05:51:10.607Z,510.00
2023-04-26T05:52:10.685Z,503.00
2023-04-26T05:53:10.744Z,476.00
2023-04-26T05:54:12.012Z,512.00
2023-04-26T05:55:11.018Z,579.00
2023-04-26T05:56:10.882Z,522.00
2023-04-26T05:57:11.986Z,437.00
2023-04-26T05:58:10.987Z,471.00
2023-04-26T05:59:11.544Z,438.00
2023-04-26T06:00:11.190Z,467.00
2023-04-26T06:01:11.235Z,528.00
2023-04-26T06:02:11.654Z,437.00
2023-04-26T06:03:11.583Z,414.00
2023-04-26T06:04:11.983Z,572.00
2023-04-26T06:05:12.218Z,585.00
2023-04-26T06:06:11.605Z,546.00
2023-04-26T06:07:11.693Z,462.00
2023-04-26T06:08:12.039Z,480.00
2023-04-26T06:09:11.916Z,522.00
2023-04-26T06:10:12.522Z,534.00
2023-04-26T06:11:12.136Z,456.00
2023-04-26T06:12:12.280Z,400.00
2023-04-26T06:13:12.350Z,400.00
2023-04-26T06:14:26.964Z,492.00
2023-04-26T06:15:12.527Z,443.00
2023-04-26T06:16:13.069Z,417.00
2023-04-26T06:17:12.708Z,465.00
2023-04-26T06:18:12.798Z,537.00
2023-04-26T06:19:12.800Z,656.00
2023-04-26T06:20:14.229Z,726.00
2023-04-26T06:21:12.958Z,680.00
2023-04-26T06:22:12.996Z,574.00
2023-04-26T06:23:13.043Z,475.00
2023-04-26T06:24:16.316Z,528.00
2023-04-26T06:25:13.565Z,522.00
2023-04-26T06:26:13.567Z,532.00
2023-04-26T06:27:13.239Z,485.00
2023-04-26T06:28:13.296Z,400.00
2023-04-26T06:29:13.365Z,400.00
2023-04-26T06:30:13.417Z,400.00
2023-04-26T06:31:13.582Z,400.00
2023-04-26T06:32:13.533Z,400.00
2023-04-26T06:33:13.583Z,400.00
2023-04-26T06:35:13.033Z,442.00
2023-04-26T06:36:13.791Z,486.00
2023-04-26T06:37:14.036Z,568.00
2023-04-26T06:38:13.875Z,656.00
2023-04-26T06:39:13.928Z,843.00
2023-04-26T06:40:14.028Z,1147.00
2023-04-26T06:41:14.034Z,1106.00
2023-04-26T06:42:14.063Z,765.00
2023-04-26T06:43:14.093Z,598.00
2023-04-26T06:44:14.110Z,580.00
2023-04-26T06:45:14.533Z,610.00
2023-04-26T06:46:14.177Z,600.00
2023-04-26T06:47:14.171Z,464.00
2023-04-26T06:48:14.317Z,464.00
2023-04-26T06:49:14.279Z,480.00
2023-04-26T06:50:14.553Z,513.00
2023-04-26T06:51:14.373Z,586.00
2023-04-26T06:52:14.402Z,627.00
2023-04-26T06:53:14.411Z,628.00
2023-04-26T06:54:15.134Z,597.00
2023-04-26T06:55:14.541Z,530.00
2023-04-26T06:56:14.894Z,517.00
2023-04-26T06:57:14.632Z,572.00
2023-04-26T06:58:14.707Z,530.00
2023-04-26T06:59:14.738Z,506.00
2023-04-26T07:00:15.070Z,435.00
2023-04-26T07:01:14.883Z,400.00
2023-04-26T07:02:15.849Z,400.00
2023-04-26T07:03:15.147Z,400.00
2023-04-26T07:04:15.538Z,400.00
2023-04-26T07:05:15.315Z,400.00
2023-04-26T07:06:15.182Z,400.00
2023-04-26T07:07:15.242Z,532.00
2023-04-26T07:08:15.949Z,557.00
2023-04-26T07:09:15.483Z,608.00
2023-04-26T07:10:15.405Z,400.00
2023-04-26T07:11:15.529Z,400.00
2023-04-26T07:12:15.557Z,545.00
2023-04-26T07:13:16.055Z,570.00
2023-04-26T07:14:15.683Z,668.00
2023-04-26T07:15:15.749Z,669.00
2023-04-26T07:16:15.897Z,652.00
2023-04-26T07:17:15.958Z,571.00
2023-04-26T07:18:16.152Z,500.00
2023-04-26T07:19:16.579Z,515.00
2023-04-26T07:20:16.213Z,535.00
2023-04-26T07:21:16.347Z,1022.00
2023-04-26T07:22:16.431Z,1028.00
2023-04-26T07:23:16.543Z,911.00
2023-04-26T07:24:16.706Z,1270.00
2023-04-26T07:25:16.651Z,1466.00
2023-04-26T07:26:16.710Z,1455.00
2023-04-26T07:27:17.001Z,1273.00
2023-04-26T07:28:17.040Z,999.00
2023-04-26T07:29:16.977Z,1392.00
2023-04-26T07:30:17.071Z,1768.00
2023-04-26T07:31:17.745Z,1989.00
2023-04-26T07:32:17.398Z,1927.00
2023-04-26T07:33:17.741Z,2118.00
2023-04-26T07:34:17.500Z,2199.00
2023-04-26T07:35:17.579Z,2237.00
2023-04-26T07:36:17.687Z,1864.00
2023-04-26T07:37:17.821Z,1523.00
2023-04-26T07:38:18.039Z,1608.00
2023-04-26T07:39:18.021Z,1142.00
2023-04-26T07:40:18.602Z,1256.00
2023-04-26T07:41:18.238Z,1574.00
2023-04-26T07:42:18.311Z,1604.00
2023-04-26T07:43:18.409Z,1844.00
2023-04-26T07:44:18.464Z,1198.00
2023-04-26T07:45:18.542Z,1169.00
2023-04-26T07:46:18.805Z,959.00
2023-04-26T07:47:18.694Z,691.00
2023-04-26T07:48:18.782Z,422.00
2023-04-26T07:49:18.831Z,400.00
2023-04-26T07:50:19.102Z,400.00
2023-04-26T07:51:19.015Z,400.00
2023-04-26T07:52:19.078Z,400.00
2023-04-26T07:53:19.467Z,400.00
2023-04-26T07:54:19.268Z,400.00
2023-04-26T07:55:19.632Z,400.00
2023-04-26T07:56:19.509Z,439.00
2023-04-26T07:57:19.542Z,578.00
2023-04-26T07:58:19.635Z,635.00
2023-04-26T07:59:19.765Z,548.00
2023-04-26T08:00:20.102Z,505.00
2023-04-26T08:01:19.883Z,503.00
2023-04-26T08:02:24.945Z,400.00
2023-04-26T08:03:20.182Z,401.00
2023-04-26T08:04:20.233Z,422.00
2023-04-26T08:05:20.420Z,479.00
2023-04-26T08:06:20.254Z,527.00
2023-04-26T08:07:20.098Z,413.00
2023-04-26T08:08:20.126Z,430.00
2023-04-26T08:09:20.177Z,400.00
2023-04-26T08:10:20.543Z,400.00
2023-04-26T08:11:20.671Z,443.00
2023-04-26T08:12:20.309Z,487.00
2023-04-26T08:13:20.250Z,555.00
2023-04-26T08:14:20.289Z,977.00
2023-04-26T08:15:20.556Z,954.00
2023-04-26T08:16:20.332Z,669.00
2023-04-26T08:17:20.311Z,697.00
2023-04-26T08:18:20.317Z,597.00
2023-04-26T08:19:20.363Z,568.00
2023-04-26T08:20:20.578Z,564.00
2023-04-26T08:21:20.427Z,412.00
2023-04-26T08:22:20.474Z,404.00
2023-04-26T08:23:20.516Z,594.00
2023-04-26T08:24:20.571Z,897.00
2023-04-26T08:25:21.051Z,749.00
2023-04-26T08:26:21.043Z,633.00
2023-04-26T08:27:20.682Z,464.00
2023-04-26T08:28:20.829Z,564.00
2023-04-26T08:29:20.808Z,638.00
2023-04-26T08:30:20.909Z,477.00
2023-04-26T08:31:21.070Z,400.00
2023-04-26T08:32:21.028Z,469.00
2023-04-26T08:33:21.105Z,621.00
2023-04-26T08:34:21.169Z,400.00
2023-04-26T08:35:21.640Z,400.00
2023-04-26T08:36:21.390Z,400.00
2023-04-26T08:37:21.603Z,400.00
2023-04-26T08:38:21.493Z,410.00
2023-04-26T08:39:21.583Z,449.00
2023-04-26T08:40:22.207Z,400.00
2023-04-26T08:41:22.059Z,453.00
2023-04-26T08:42:21.819Z,548.00
2023-04-26T08:43:21.864Z,507.00
2023-04-26T08:44:22.241Z,579.00
2023-04-26T08:45:25.287Z,642.00
2023-04-26T08:46:22.160Z,642.00
2023-04-26T08:47:22.019Z,400.00
2023-04-26T08:48:22.058Z,400.00
2023-04-26T08:49:22.051Z,400.00
2023-04-26T08:50:22.595Z,400.00
2023-04-26T08:51:22.100Z,400.00
2023-04-26T08:52:22.112Z,400.00
2023-04-26T08:53:22.141Z,400.00
2023-04-26T08:54:22.172Z,400.00
2023-04-26T08:55:22.578Z,400.00
2023-04-26T08:56:22.195Z,400.00
2023-04-26T08:57:22.224Z,400.00
2023-04-26T08:58:22.690Z,400.00
2023-04-26T08:59:22.245Z,400.00
2023-04-26T09:00:22.419Z,400.00
2023-04-26T09:01:23.050Z,472.00
2023-04-26T09:02:22.514Z,500.00
2023-04-26T09:03:22.504Z,417.00
2023-04-26T09:04:22.689Z,413.00
2023-04-26T09:05:22.448Z,616.00
2023-04-26T09:06:22.555Z,415.00
2023-04-26T09:07:22.655Z,400.00
2023-04-26T09:08:22.627Z,400.00
2023-04-26T09:09:22.742Z,400.00
2023-04-26T09:10:22.975Z,421.00
2023-04-26T09:11:22.942Z,922.00
2023-04-26T09:12:23.084Z,2003.00
2023-04-26T09:13:23.267Z,2343.00
2023-04-26T09:14:23.175Z,2095.00
2023-04-26T09:15:23.246Z,1624.00
2023-04-26T09:16:23.506Z,1101.00
2023-04-26T09:17:23.399Z,1063.00
2023-04-26T09:18:23.509Z,464.00
2023-04-26T09:19:23.549Z,540.00
2023-04-26T09:20:23.626Z,432.00
2023-04-26T09:21:24.070Z,454.00
2023-04-26T09:22:23.708Z,400.00
2023-04-26T09:23:23.762Z,471.00
2023-04-26T09:24:24.067Z,527.00
2023-04-26T09:25:24.509Z,587.00
2023-04-26T09:26:23.960Z,564.00
2023-04-26T09:27:24.023Z,420.00
2023-04-26T09:28:24.075Z,486.00
2023-04-26T09:29:24.569Z,491.00
2023-04-26T09:30:24.141Z,400.00
2023-04-26T09:31:24.583Z,400.00
2023-04-26T09:32:24.342Z,400.00
2023-04-26T09:33:24.553Z,400.00
2023-04-26T09:34:24.383Z,400.00
2023-04-26T09:35:24.438Z,491.00
2023-04-26T09:36:24.558Z,480.00
2023-04-26T09:37:24.484Z,462.00
2023-04-26T09:38:24.491Z,1039.00
2023-04-26T09:39:24.520Z,866.00
2023-04-26T09:40:24.559Z,650.00
2023-04-26T09:41:25.096Z,400.00
2023-04-26T09:42:24.773Z,400.00
2023-04-26T09:43:24.698Z,400.00
2023-04-26T09:44:24.684Z,400.00
2023-04-26T09:45:24.742Z,400.00
2023-04-26T09:46:24.825Z,400.00
2023-04-26T09:47:25.044Z,400.00
2023-04-26T09:48:24.798Z,400.00
2023-04-26T09:49:25.115Z,400.00
2023-04-26T09:50:24.765Z,400.00
2023-04-26T09:51:25.126Z,400.00
2023-04-26T09:52:24.816Z,400.00
2023-04-26T09:53:24.818Z,400.00
2023-04-26T09:54:24.839Z,400.00
2023-04-26T09:55:34.187Z,400.00
2023-04-26T09:56:26.747Z,400.00
2023-04-26T09:57:24.823Z,400.00
2023-04-26T09:58:24.801Z,400.00
2023-04-26T09:59:24.752Z,400.00
2023-04-26T10:00:25.059Z,400.00
2023-04-26T10:01:26.797Z,400.00
2023-04-26T10:02:25.067Z,400.00
2023-04-26T10:03:24.940Z,400.00
2023-04-26T10:04:24.877Z,400.00
2023-04-26T10:05:24.756Z,400.00
2023-04-26T10:06:25.078Z,400.00
2023-04-26T10:07:25.481Z,400.00
2023-04-26T10:08:24.757Z,400.00
2023-04-26T10:09:24.745Z,400.00
2023-04-26T10:10:24.736Z,400.00
2023-04-26T10:11:25.834Z,400.00
2023-04-26T10:12:24.862Z,400.00
2023-04-26T10:13:25.583Z,419.00
2023-04-26T10:14:25.876Z,439.00
2023-04-26T10:15:25.791Z,643.00
2023-04-26T10:16:25.289Z,979.00
2023-04-26T10:17:26.790Z,958.00
2023-04-26T10:18:25.706Z,1303.00
2023-04-26T10:19:24.845Z,564.00
2023-04-26T10:20:25.605Z,414.00
2023-04-26T10:21:24.762Z,496.00
2023-04-26T10:22:25.229Z,586.00
2023-04-26T10:23:24.727Z,408.00
2023-04-26T10:24:25.738Z,400.00
2023-04-26T10:25:24.678Z,400.00
2023-04-26T10:26:25.067Z,400.00
2023-04-26T10:27:24.613Z,400.00
2023-04-26T10:28:24.575Z,400.00
2023-04-26T10:29:24.523Z,400.00
2023-04-26T10:30:24.893Z,400.00
2023-04-26T10:31:24.993Z,492.00
2023-04-26T10:32:24.424Z,524.00
2023-04-26T10:33:24.876Z,484.00
2023-04-26T10:34:24.820Z,423.00
2023-04-26T10:35:24.765Z,490.00
2023-04-26T10:36:25.038Z,548.00
2023-04-26T10:37:24.614Z,937.00
2023-04-26T10:38:24.576Z,1146.00
2023-04-26T10:39:24.748Z,1152.00
2023-04-26T10:40:24.747Z,1284.00
2023-04-26T10:41:24.718Z,1435.00
2023-04-26T10:42:26.098Z,1201.00
2023-04-26T10:43:26.128Z,772.00
2023-04-26T10:44:24.729Z,550.00
2023-04-26T10:45:24.819Z,491.00
2023-04-26T10:46:24.511Z,480.00
2023-04-26T10:47:24.998Z,422.00
2023-04-26T10:48:24.615Z,500.00
2023-04-26T10:49:26.557Z,438.00
2023-04-26T10:50:24.092Z,400.00
2023-04-26T10:51:24.075Z,539.00
2023-04-26T10:52:24.453Z,519.00
2023-04-26T10:53:23.983Z,531.00
2023-04-26T10:54:23.952Z,594.00
2023-04-26T10:55:25.401Z,646.00
2023-04-26T10:56:24.212Z,473.00
2023-04-26T10:57:24.179Z,400.00
2023-04-26T10:58:23.989Z,400.00
2023-04-26T10:59:39.967Z,400.00
2023-04-26T11:00:23.919Z,400.00
2023-04-26T11:01:23.929Z,430.00
2023-04-26T11:02:24.376Z,507.00
2023-04-26T11:03:24.341Z,521.00
2023-04-26T11:04:23.855Z,770.00
2023-04-26T11:05:25.352Z,641.00
2023-04-26T11:06:24.077Z,496.00
2023-04-26T11:07:23.984Z,481.00
2023-04-26T11:08:24.145Z,522.00
2023-04-26T11:09:23.959Z,499.00
2023-04-26T11:10:23.985Z,464.00
2023-04-26T11:11:24.082Z,578.00
2023-04-26T11:12:24.040Z,645.00
2023-04-26T11:13:24.055Z,428.00
2023-04-26T11:14:24.084Z,400.00
2023-04-26T11:15:24.130Z,400.00
2023-04-26T11:16:24.912Z,400.00
2023-04-26T11:17:24.867Z,526.00
2023-04-26T11:18:24.207Z,441.00
2023-04-26T11:19:24.220Z,475.00
2023-04-26T11:20:24.266Z,495.00
2023-04-26T11:21:24.226Z,426.00
2023-04-26T11:22:24.200Z,537.00
2023-04-26T11:23:24.200Z,486.00
2023-04-26T11:24:24.340Z,442.00
2023-04-26T11:25:24.238Z,412.00
2023-04-26T11:26:24.220Z,461.00
2023-04-26T11:27:24.251Z,583.00
2023-04-26T11:28:24.264Z,622.00
2023-04-26T11:29:24.247Z,615.00
2023-04-26T11:30:24.633Z,623.00
2023-04-26T11:31:24.315Z,672.00
2023-04-26T11:32:24.646Z,942.00
2023-04-26T11:33:24.238Z,900.00
2023-04-26T11:34:24.214Z,623.00
2023-04-26T11:35:24.229Z,585.00
2023-04-26T11:36:24.587Z,665.00
2023-04-26T11:37:24.269Z,637.00
2023-04-26T11:38:24.276Z,1027.00
2023-04-26T11:39:24.302Z,1268.00
2023-04-26T11:40:24.354Z,1393.00
2023-04-26T11:41:24.700Z,2003.00
2023-04-26T11:42:24.334Z,2458.00
2023-04-26T11:43:24.387Z,2672.00
2023-04-26T11:44:24.390Z,2626.00
2023-04-26T11:45:24.350Z,2267.00
2023-04-26T11:46:24.397Z,1917.00
2023-04-26T11:47:24.346Z,1503.00
2023-04-26T11:48:24.378Z,1289.00
2023-04-26T11:49:24.341Z,1468.00
2023-04-26T11:50:24.321Z,2199.00
2023-04-26T11:51:24.260Z,2643.00
2023-04-26T11:52:24.309Z,3102.00
2023-04-26T11:53:24.223Z,3003.00
2023-04-26T11:54:24.214Z,3006.00
2023-04-26T11:55:24.253Z,2982.00
2023-04-26T11:56:24.459Z,2902.00
2023-04-26T11:57:24.291Z,3096.00
2023-04-26T11:58:24.297Z,3275.00
2023-04-26T11:59:24.296Z,2616.00
2023-04-26T12:00:24.602Z,2155.00
2023-04-26T12:01:24.658Z,1736.00
2023-04-26T12:02:24.523Z,1444.00
2023-04-26T12:03:24.782Z,1191.00
2023-04-26T12:04:25.508Z,1680.00
2023-04-26T12:05:24.533Z,1719.00
2023-04-26T12:06:24.347Z,1940.00
2023-04-26T12:07:24.310Z,1969.00
2023-04-26T12:08:24.618Z,2349.00
2023-04-26T12:09:24.253Z,2813.00
2023-04-26T12:10:24.215Z,2888.00
2023-04-26T12:11:24.484Z,3861.00
2023-04-26T12:12:24.196Z,4570.00
2023-04-26T12:13:24.154Z,4392.00
2023-04-26T12:14:24.136Z,4425.00
2023-04-26T12:15:24.116Z,4158.00
2023-04-26T12:16:26.584Z,4406.00
2023-04-26T12:17:24.166Z,4414.00
2023-04-26T12:18:24.095Z,4427.00
2023-04-26T12:19:24.021Z,4006.00